Time;durP1;ratioP1;P1;durP2;ratioP2;P2;SDS_P1;SDS_P2;PMS_P1;PMS_P2;Temp;Humidity;BMP_temperature;BMP_pressure;BME280_temperature;BME280_humidity;BME280_pressure;Samples;Min_cycle;Max_cycle;Signal;HPM_P1;HPM_P2
2022/08/01 00:02:12;;;;;;;4.53;1.90;;;21.50;39.00;;;;;;5075186;28;20175;-82
2022/08/01 00:04:37;;;;;;;4.53;2.20;;;21.50;37.40;;;;;;5075515;28;20711;-83
2022/08/01 00:07:03;;;;;;;4.30;2.00;;;21.50;38.60;;;;;;5076029;28;20250;-85
2022/08/01 00:09:29;;;;;;;4.80;2.43;;;21.50;38.10;;;;;;5058874;28;20179;-83
2022/08/01 00:11:55;;;;;;;4.53;2.73;;;21.40;42.70;;;;;;5057876;28;20206;-83
2022/08/01 00:14:20;;;;;;;5.50;2.63;;;21.20;48.30;;;;;;5058353;28;20234;-81
2022/08/01 00:16:46;;;;;;;6.53;2.67;;;21.10;50.50;;;;;;5076148;28;20289;-80
2022/08/01 00:19:12;;;;;;;5.43;2.60;;;21.10;51.00;;;;;;5077861;28;20167;-82
2022/08/01 00:21:37;;;;;;;6.57;3.20;;;21.10;51.80;;;;;;5079509;28;20220;-80
2022/08/01 00:24:03;;;;;;;6.53;3.17;;;21.10;52.70;;;;;;5081338;28;20189;-83
2022/08/01 00:26:29;;;;;;;6.10;3.13;;;21.10;53.00;;;;;;5098828;28;20162;-82
2022/08/01 00:29:01;;;;;;;6.43;3.53;;;21.00;54.40;;;;;;5086357;28;20170;-81
2022/08/01 00:31:45;;;;;;;7.20;3.87;;;21.10;54.00;;;;;;5083804;28;20172;-84
2022/08/01 00:34:11;;;;;;;5.10;3.33;;;21.10;54.40;;;;;;5057332;28;20178;-81
2022/08/01 00:36:38;;;;;;;6.67;3.87;;;21.00;56.40;;;;;;5074206;28;20236;-84
2022/08/01 00:39:06;;;;;;;6.43;3.47;;;21.00;56.90;;;;;;5074544;28;20189;-82
2022/08/01 00:41:32;;;;;;;6.73;3.47;;;21.00;58.20;;;;;;5056957;28;20185;-82
2022/08/01 00:43:57;;;;;;;5.87;3.37;;;21.00;57.10;;;;;;5074098;28;20208;-85
2022/08/01 00:46:23;;;;;;;8.33;3.77;;;21.00;57.20;;;;;;5056274;28;20183;-86
2022/08/01 00:48:49;;;;;;;6.77;3.30;;;21.00;56.10;;;;;;5076151;28;20189;-83
2022/08/01 00:51:15;;;;;;;5.80;3.13;;;21.00;56.40;;;;;;5055983;28;20565;-83
2022/08/01 00:53:41;;;;;;;7.10;3.37;;;21.00;56.70;;;;;;5055913;28;20195;-83
2022/08/01 00:56:07;;;;;;;6.73;3.67;;;21.10;55.10;;;;;;5056724;28;20629;-82
2022/08/01 00:58:33;;;;;;;4.27;3.00;;;21.20;52.80;;;;;;5068508;28;20182;-82
2022/08/01 01:00:59;;;;;;;5.07;3.40;;;21.20;50.30;;;;;;5097357;28;20179;-85
2022/08/01 01:03:33;;;;;;;5.97;2.90;;;21.30;49.60;;;;;;5060808;28;20643;-83
2022/08/01 01:06:34;;;;;;;7.77;3.10;;;21.30;49.10;;;;;;5075426;28;20224;-83
2022/08/01 01:09:25;;;;;;;6.83;3.53;;;21.30;48.50;;;;;;5058034;28;20206;-84
2022/08/01 01:12:18;;;;;;;5.83;3.40;;;21.30;47.70;;;;;;5075095;28;20178;-85
2022/08/01 01:15:04;;;;;;;6.00;3.80;;;21.30;47.80;;;;;;5061960;28;20194;-82
2022/08/01 01:17:45;;;;;;;4.23;3.23;;;21.30;50.00;;;;;;5077657;28;20248;-80
2022/08/01 01:20:13;;;;;;;6.00;4.13;;;21.20;52.20;;;;;;5087136;28;20726;-80
2022/08/01 01:26:21;;;;;;;6.57;4.57;;;21.00;56.40;;;;;;5074901;28;20239;-81
2022/08/01 01:29:32;;;;;;;6.90;4.37;;;21.00;59.30;;;;;;5058153;28;20185;-81
2022/08/01 01:32:19;;;;;;;11.33;7.60;;;21.00;59.50;;;;;;5041614;28;20550;-81
2022/08/01 01:34:47;;;;;;;11.80;8.17;;;20.80;66.50;;;;;;5087264;28;20261;-81
2022/08/01 01:37:18;;;;;;;12.13;8.50;;;20.70;73.70;;;;;;5077551;28;20217;-81
2022/08/01 01:39:46;;;;;;;13.40;9.47;;;20.70;74.40;;;;;;5071523;28;20233;-82
2022/08/01 01:42:13;;;;;;;12.60;8.53;;;20.60;75.40;;;;;;5080638;28;20520;-81
2022/08/01 01:45:10;;;;;;;12.53;8.30;;;20.60;77.30;;;;;;5078469;28;20705;-82
2022/08/01 01:47:38;;;;;;;13.77;9.37;;;20.60;78.10;;;;;;5078583;28;20268;-82
2022/08/01 01:50:06;;;;;;;14.97;8.77;;;20.60;78.30;;;;;;5060257;28;20175;-82
2022/08/01 01:52:32;;;;;;;16.60;10.00;;;20.70;77.60;;;;;;5059623;28;20174;-83
2022/08/01 01:54:59;;;;;;;13.90;9.30;;;20.60;78.90;;;;;;5059989;28;20182;-81
2022/08/01 01:57:29;;;;;;;13.43;8.83;;;20.50;82.10;;;;;;5060136;28;20206;-81
2022/08/01 01:59:57;;;;;;;12.37;9.30;;;20.50;81.80;;;;;;5060326;28;20172;-85
2022/08/01 02:02:24;;;;;;;16.77;9.53;;;20.50;82.80;;;;;;5059353;28;20175;-80
2022/08/01 02:04:51;;;;;;;11.80;8.50;;;20.60;81.50;;;;;;5059243;28;20170;-81
2022/08/01 02:07:23;;;;;;;11.77;8.80;;;20.70;81.20;;;;;;5059851;28;20190;-81
2022/08/01 02:09:51;;;;;;;13.90;8.47;;;20.70;78.80;;;;;;5077494;28;20182;-81
2022/08/01 02:12:18;;;;;;;13.20;8.53;;;20.70;80.00;;;;;;5059164;28;20528;-82
2022/08/01 02:14:48;;;;;;;13.90;9.10;;;20.70;78.70;;;;;;5064104;28;20173;-81
2022/08/01 02:17:18;;;;;;;17.00;9.90;;;20.70;77.40;;;;;;5067154;28;20214;-81
2022/08/01 02:19:44;;;;;;;16.20;9.50;;;20.80;78.20;;;;;;5069336;28;20178;-80
2022/08/01 02:22:57;;;;;;;13.93;9.03;;;20.80;78.40;;;;;;5060109;28;20261;-79
2022/08/01 02:25:52;;;;;;;13.13;8.87;;;20.80;76.00;;;;;;5069646;28;20213;-78
2022/08/01 02:28:27;;;;;;;14.07;9.27;;;20.60;83.20;;;;;;5089944;28;20332;-78
2022/08/01 02:30:54;;;;;;;18.17;11.20;;;20.60;84.00;;;;;;5078178;28;20165;-78
2022/08/01 02:33:25;;;;;;;19.40;11.20;;;20.60;83.40;;;;;;5097382;28;20240;-79
2022/08/01 02:35:56;;;;;;;16.43;11.13;;;20.50;86.20;;;;;;5080439;28;20162;-80
2022/08/01 02:38:27;;;;;;;16.17;11.50;;;20.50;89.00;;;;;;5074578;28;20216;-80
2022/08/01 02:40:57;;;;;;;18.13;11.07;;;20.50;89.70;;;;;;5095258;28;20217;-80
2022/08/01 02:43:25;;;;;;;20.00;11.30;;;20.50;90.10;;;;;;5064687;28;20244;-81
2022/08/01 02:45:55;;;;;;;17.50;11.53;;;20.50;90.30;;;;;;5086665;28;20254;-81
2022/08/01 02:48:25;;;;;;;19.47;11.33;;;20.40;90.10;;;;;;5063105;28;20190;-81
2022/08/01 02:50:58;;;;;;;17.60;10.30;;;20.50;89.30;;;;;;5066567;28;20213;-82
2022/08/01 02:53:31;;;;;;;15.57;10.27;;;20.60;86.90;;;;;;5058527;28;20167;-81
2022/08/01 02:55:59;;;;;;;16.90;10.13;;;20.60;86.30;;;;;;5059697;28;20184;-83
2022/08/01 02:58:33;;;;;;;17.97;9.93;;;20.60;84.70;;;;;;5076897;28;20252;-81
2022/08/01 03:01:02;;;;;;;16.10;9.87;;;20.60;83.10;;;;;;5058347;28;20169;-83
2022/08/01 03:03:29;;;;;;;12.80;8.53;;;20.60;84.10;;;;;;5076032;28;20222;-80
2022/08/01 03:06:02;;;;;;;16.23;9.97;;;20.50;86.40;;;;;;5077057;28;20163;-83
2022/08/01 03:08:30;;;;;;;15.87;9.60;;;20.40;90.30;;;;;;5077517;28;20169;-84
2022/08/01 03:10:59;;;;;;;13.40;8.83;;;20.40;90.10;;;;;;5077038;28;20171;-84
2022/08/01 03:13:25;;;;;;;14.87;9.50;;;20.50;88.10;;;;;;5075669;28;20175;-85
2022/08/01 03:15:53;;;;;;;15.53;9.00;;;20.40;88.10;;;;;;5058681;28;20198;-82
2022/08/01 03:18:20;;;;;;;15.30;10.30;;;20.40;89.40;;;;;;5058974;28;20209;-82
2022/08/01 03:20:47;;;;;;;14.90;10.20;;;20.30;91.30;;;;;;5076650;28;20680;-82
2022/08/01 03:23:15;;;;;;;17.73;11.10;;;20.20;93.10;;;;;;5075388;28;20681;-81
2022/08/01 03:25:43;;;;;;;17.67;11.83;;;20.10;94.80;;;;;;5058323;28;20656;-81
2022/08/01 03:28:13;;;;;;;19.27;12.20;;;20.10;95.80;;;;;;5058681;28;20178;-83
2022/08/01 03:30:40;;;;;;;20.90;12.83;;;20.00;97.50;;;;;;5076294;28;20176;-81
2022/08/01 03:33:07;;;;;;;23.37;14.20;;;20.00;98.80;;;;;;5057555;28;20264;-82
2022/08/01 03:35:37;;;;;;;22.63;13.63;;;20.00;99.50;;;;;;5057570;28;20174;-81
2022/08/01 03:38:09;;;;;;;23.10;14.70;;;20.00;99.90;;;;;;5059022;28;20312;-83
2022/08/01 03:40:43;;;;;;;21.27;14.07;;;20.00;99.90;;;;;;5058199;28;20309;-81
2022/08/01 03:43:28;;;;;;;20.87;14.80;;;19.90;99.90;;;;;;5057533;28;20232;-80
2022/08/01 03:45:57;;;;;;;22.33;15.03;;;19.90;99.90;;;;;;5057247;28;20280;-82
2022/08/01 03:48:29;;;;;;;27.53;16.47;;;19.90;99.90;;;;;;5058531;28;20220;-84
2022/08/01 03:50:56;;;;;;;26.80;15.67;;;19.90;99.90;;;;;;5057767;28;20178;-83
2022/08/01 03:53:30;;;;;;;25.30;16.77;;;20.00;99.90;;;;;;5056726;28;20307;-80
2022/08/01 03:56:00;;;;;;;23.30;16.77;;;20.00;99.90;;;;;;5063240;28;20186;-83
2022/08/01 03:58:26;;;;;;;26.47;17.97;;;20.00;99.90;;;;;;5081920;28;20205;-81
2022/08/01 04:00:53;;;;;;;24.77;18.17;;;20.00;99.90;;;;;;5077342;28;20237;-81
2022/08/01 04:03:23;;;;;;;27.00;18.00;;;20.00;99.90;;;;;;5072887;28;20277;-83
2022/08/01 04:05:49;;;;;;;25.63;17.57;;;20.00;99.90;;;;;;5064370;28;20275;-81
2022/08/01 04:08:15;;;;;;;25.10;16.90;;;20.10;99.90;;;;;;5099022;28;20147;-82
2022/08/01 04:10:41;;;;;;;24.20;16.43;;;20.10;99.90;;;;;;5080376;28;20182;-80
2022/08/01 04:13:07;;;;;;;25.47;18.07;;;20.10;99.90;;;;;;5081953;28;20157;-82
2022/08/01 04:15:33;;;;;;;23.30;16.93;;;20.20;99.90;;;;;;5081314;28;20170;-81
2022/08/01 04:18:04;;;;;;;20.43;15.97;;;20.20;99.90;;;;;;5099264;28;20187;-82
2022/08/01 04:20:53;;;;;;;22.00;16.53;;;20.20;99.90;;;;;;5081223;28;20230;-82
2022/08/01 04:24:07;;;;;;;25.27;17.03;;;20.20;99.90;;;;;;5071246;28;20626;-81
2022/08/01 04:26:54;;;;;;;22.50;16.50;;;20.20;99.90;;;;;;5060103;28;20167;-81
2022/08/01 04:29:21;;;;;;;23.30;15.67;;;20.40;99.90;;;;;;5079586;28;20163;-82
2022/08/01 04:31:49;;;;;;;20.60;15.27;;;20.40;99.90;;;;;;5061266;28;20581;-84
2022/08/01 04:34:20;;;;;;;21.63;16.27;;;20.30;99.90;;;;;;5076308;28;20165;-84
2022/08/01 04:36:48;;;;;;;21.03;16.83;;;20.30;99.90;;;;;;5064069;28;20194;-81
2022/08/01 04:39:16;;;;;;;21.20;17.20;;;20.20;99.90;;;;;;5067459;28;20183;-81
2022/08/01 04:41:43;;;;;;;25.53;18.60;;;20.20;99.90;;;;;;5073925;28;20242;-80
2022/08/01 04:44:08;;;;;;;22.73;18.40;;;20.20;99.90;;;;;;5056448;28;20299;-82
2022/08/01 04:46:37;;;;;;;25.60;17.83;;;20.20;99.90;;;;;;5075124;28;20655;-79
2022/08/01 04:49:06;;;;;;;23.10;17.27;;;20.30;99.90;;;;;;5075849;28;20181;-81
2022/08/01 04:51:32;;;;;;;23.47;17.47;;;20.20;99.90;;;;;;5076372;28;20237;-81
2022/08/01 04:53:58;;;;;;;21.20;17.33;;;20.20;99.90;;;;;;5057314;28;20640;-82
2022/08/01 04:56:24;;;;;;;22.27;16.90;;;20.00;99.90;;;;;;5076001;28;20183;-82
2022/08/01 04:59:39;;;;;;;20.93;15.53;;;19.90;99.90;;;;;;5059395;28;20182;-82
2022/08/01 05:01:35;;;;;;;21.03;15.23;;;19.90;99.90;;;;;;5073963;28;20638;-81
2022/08/01 05:04:00;;;;;;;17.43;14.70;;;19.80;99.90;;;;;;5073530;28;20187;-81
2022/08/01 05:06:26;;;;;;;19.13;15.17;;;19.90;99.90;;;;;;5056214;28;20176;-82
2022/08/01 05:08:53;;;;;;;17.00;14.63;;;19.90;99.90;;;;;;5056936;28;20267;-81
2022/08/01 05:11:19;;;;;;;17.43;13.90;;;19.90;99.90;;;;;;5073501;28;20163;-83
2022/08/01 05:13:44;;;;;;;19.23;15.00;;;19.90;99.90;;;;;;5056386;28;20266;-81
2022/08/01 05:16:10;;;;;;;19.83;15.27;;;19.90;99.90;;;;;;5076894;28;20192;-82
2022/08/01 05:18:36;;;;;;;17.73;15.60;;;19.90;99.90;;;;;;5061432;28;20179;-82
2022/08/01 05:21:01;;;;;;;18.93;15.50;;;19.90;99.90;;;;;;5061018;28;20185;-81
2022/08/01 05:23:27;;;;;;;17.33;15.03;;;19.90;99.90;;;;;;5060153;28;20185;-82
2022/08/01 05:25:54;;;;;;;17.17;14.27;;;20.00;99.90;;;;;;5078879;28;20212;-82
2022/08/01 05:28:19;;;;;;;16.27;14.53;;;20.00;99.90;;;;;;5061450;28;20168;-81
2022/08/01 05:30:45;;;;;;;17.13;13.33;;;20.10;99.90;;;;;;5078596;28;20651;-82
2022/08/01 05:33:11;;;;;;;15.17;13.57;;;20.10;99.90;;;;;;5059322;28;20593;-82
2022/08/01 05:35:37;;;;;;;16.97;12.70;;;20.20;99.90;;;;;;5078244;28;20175;-82
2022/08/01 05:38:02;;;;;;;15.57;12.70;;;20.20;99.90;;;;;;5060812;28;20208;-84
2022/08/01 05:40:28;;;;;;;14.27;12.53;;;20.30;99.90;;;;;;5078679;28;20191;-83
2022/08/01 05:42:54;;;;;;;14.23;11.93;;;20.50;99.90;;;;;;5077364;28;20266;-83
2022/08/01 05:45:19;;;;;;;15.40;12.13;;;20.40;99.90;;;;;;5060114;28;20173;-83
2022/08/01 05:47:45;;;;;;;13.30;11.87;;;20.30;99.90;;;;;;5061198;28;20191;-81
2022/08/01 05:50:11;;;;;;;13.33;11.93;;;20.40;99.90;;;;;;5096501;28;20214;-82
2022/08/01 05:52:37;;;;;;;13.13;10.60;;;20.40;99.90;;;;;;5074917;28;20202;-84
2022/08/01 05:55:03;;;;;;;13.37;10.73;;;20.30;99.90;;;;;;5060342;28;20600;-82
2022/08/01 05:57:29;;;;;;;12.00;10.57;;;20.30;99.90;;;;;;5078666;28;20672;-82
2022/08/01 05:59:55;;;;;;;12.70;10.80;;;20.30;99.90;;;;;;5079530;28;20164;-84
2022/08/01 06:02:21;;;;;;;13.93;10.33;;;20.30;99.90;;;;;;5078150;28;20203;-82
2022/08/01 06:04:47;;;;;;;14.67;10.43;;;20.40;99.90;;;;;;5058864;28;20191;-81
2022/08/01 06:07:12;;;;;;;12.50;9.73;;;20.40;99.90;;;;;;5058977;28;20297;-81
2022/08/01 06:09:38;;;;;;;14.33;10.93;;;20.40;99.90;;;;;;5058262;28;20176;-82
2022/08/01 06:12:04;;;;;;;11.33;9.50;;;20.40;99.90;;;;;;5076392;28;20663;-83
2022/08/01 06:14:32;;;;;;;11.77;9.97;;;20.40;99.90;;;;;;5058753;28;20658;-79
2022/08/01 06:16:58;;;;;;;12.77;10.07;;;20.30;99.20;;;;;;5059555;28;20195;-82
2022/08/01 06:19:26;;;;;;;14.10;11.50;;;20.40;99.90;;;;;;5078461;28;20164;-83
2022/08/01 06:21:52;;;;;;;12.47;9.67;;;20.50;98.70;;;;;;5058845;28;20168;-82
2022/08/01 06:24:18;;;;;;;13.17;9.87;;;20.40;98.60;;;;;;5076858;28;20185;-82
2022/08/01 06:26:44;;;;;;;12.30;9.83;;;20.50;97.70;;;;;;5076875;28;20534;-84
2022/08/01 06:29:09;;;;;;;12.70;9.33;;;20.50;97.00;;;;;;5082550;28;20647;-80
2022/08/01 06:31:35;;;;;;;13.77;9.40;;;20.60;97.20;;;;;;5080485;28;20180;-79
2022/08/01 06:34:01;;;;;;;11.47;9.33;;;20.70;97.10;;;;;;5078513;28;20197;-83
2022/08/01 06:36:27;;;;;;;12.53;8.03;;;20.80;95.00;;;;;;5082392;28;20162;-85
2022/08/01 06:38:53;;;;;;;12.03;8.20;;;20.80;92.90;;;;;;5082176;28;20180;-83
2022/08/01 06:41:22;;;;;;;10.63;8.73;;;20.80;92.50;;;;;;5079015;28;20703;-81
2022/08/01 06:43:50;;;;;;;9.73;6.67;;;21.00;91.50;;;;;;5066706;28;20217;-81
2022/08/01 06:49:38;;;;;;;9.60;7.30;;;20.90;86.30;;;;;;5077236;28;20199;-83
2022/08/01 06:52:04;;;;;;;9.50;6.97;;;21.00;82.00;;;;;;5058636;28;20172;-81
2022/08/01 06:54:29;;;;;;;9.17;6.67;;;21.30;77.60;;;;;;5060984;28;20195;-80
2022/08/01 06:56:55;;;;;;;9.00;6.10;;;21.30;73.60;;;;;;5098137;28;20219;-81
2022/08/01 06:59:22;;;;;;;7.63;5.77;;;21.40;65.20;;;;;;5100226;28;20160;-80
2022/08/01 07:01:48;;;;;;;8.10;5.97;;;21.20;59.40;;;;;;5082605;28;20180;-81
2022/08/01 07:04:13;;;;;;;7.57;6.03;;;21.20;64.30;;;;;;5095356;28;20228;-83
2022/08/01 07:06:39;;;;;;;8.60;6.07;;;21.40;58.80;;;;;;5058972;28;20164;-81
2022/08/01 07:09:07;;;;;;;8.17;6.17;;;21.40;57.80;;;;;;5061142;28;20190;-83
2022/08/01 07:11:32;;;;;;;6.77;5.50;;;21.20;58.10;;;;;;5058609;28;20222;-83
2022/08/01 07:13:58;;;;;;;8.83;5.80;;;21.20;56.70;;;;;;5057893;28;20554;-81
2022/08/01 07:16:24;;;;;;;6.17;5.13;;;21.20;57.80;;;;;;5076273;28;20631;-83
2022/08/01 07:18:50;;;;;;;6.30;5.10;;;21.10;55.20;;;;;;5059630;28;20275;-81
2022/08/01 07:21:16;;;;;;;7.90;4.30;;;21.10;57.50;;;;;;5058451;28;20207;-82
2022/08/01 07:23:42;;;;;;;5.47;4.50;;;21.20;56.10;;;;;;5075561;28;20192;-82
2022/08/01 07:26:07;;;;;;;6.63;4.27;;;21.20;53.90;;;;;;5041856;28;20183;-82
2022/08/01 07:28:33;;;;;;;4.53;3.47;;;21.30;50.60;;;;;;5097440;28;20203;-83
2022/08/01 07:31:02;;;;;;;3.90;3.40;;;21.40;41.40;;;;;;5064068;28;20198;-83
2022/08/01 07:33:27;;;;;;;4.67;3.37;;;21.60;29.80;;;;;;5058972;28;20172;-81
2022/08/01 07:35:54;;;;;;;4.90;3.37;;;21.70;23.80;;;;;;5061245;28;20184;-83
2022/08/01 07:38:21;;;;;;;5.43;3.67;;;21.80;19.00;;;;;;5059167;28;20280;-85
2022/08/01 07:40:46;;;;;;;3.93;3.53;;;21.60;16.10;;;;;;5059404;28;20193;-82
2022/08/01 07:43:12;;;;;;;5.57;3.13;;;21.70;17.30;;;;;;5075275;28;20656;-82
2022/08/01 07:45:41;;;;;;;4.93;3.57;;;21.80;15.90;;;;;;5057347;28;20176;-82
2022/08/01 07:48:07;;;;;;;4.07;3.10;;;21.80;8.50;;;;;;5061352;28;20191;-81
2022/08/01 07:50:33;;;;;;;3.50;2.90;;;22.00;3.90;;;;;;5081582;28;20196;-81
2022/08/01 07:52:59;;;;;;;3.87;2.50;;;22.00;1.00;;;;;;5060217;28;20200;-81
2022/08/01 07:55:25;;;;;;;3.47;2.07;;;21.80;1.00;;;;;;5077845;28;20241;-81
2022/08/01 07:57:51;;;;;;;4.10;2.30;;;21.80;2.30;;;;;;5042592;28;20557;-80
2022/08/01 08:00:18;;;;;;;5.60;2.83;;;21.70;1.40;;;;;;5057711;28;20177;-81
2022/08/01 08:02:44;;;;;;;3.77;2.60;;;21.70;1.00;;;;;;5076589;28;20632;-85
2022/08/01 08:05:12;;;;;;;4.40;2.57;;;21.90;1.00;;;;;;5059672;28;20642;-81
2022/08/01 08:07:38;;;;;;;5.10;3.13;;;22.00;1.00;;;;;;5027234;28;20177;-81
2022/08/01 08:10:05;;;;;;;3.83;2.60;;;22.20;1.00;;;;;;5058328;28;20193;-82
2022/08/01 08:12:31;;;;;;;2.67;2.23;;;22.40;1.00;;;;;;5041699;28;20208;-82
2022/08/01 08:15:00;;;;;;;3.57;2.40;;;22.30;1.00;;;;;;5060790;28;20174;-84
2022/08/01 08:17:27;;;;;;;3.83;2.50;;;22.20;1.00;;;;;;5057831;28;20204;-83
2022/08/01 08:19:53;;;;;;;2.53;2.10;;;22.10;1.00;;;;;;5057339;28;20173;-84
2022/08/01 08:22:19;;;;;;;6.20;2.33;;;21.80;1.00;;;;;;5056890;28;20604;-85
2022/08/01 08:24:44;;;;;;;4.30;2.20;;;21.80;1.00;;;;;;5057262;28;20212;-82
2022/08/01 08:27:11;;;;;;;3.40;2.43;;;21.80;1.00;;;;;;5076003;28;20610;-82
2022/08/01 08:29:37;;;;;;;2.87;2.37;;;21.80;1.00;;;;;;5076135;28;20152;-82
2022/08/01 08:32:03;;;;;;;3.00;2.57;;;21.90;1.00;;;;;;5075966;28;20188;-82
2022/08/01 08:34:29;;;;;;;4.17;2.60;;;22.00;1.00;;;;;;5056808;28;20165;-82
2022/08/01 08:36:56;;;;;;;4.10;3.10;;;22.20;1.00;;;;;;5057234;28;20189;-83
2022/08/01 08:39:23;;;;;;;4.67;2.87;;;22.10;1.00;;;;;;5056824;28;20169;-84
2022/08/01 08:41:49;;;;;;;3.50;3.20;;;22.20;1.00;;;;;;5074656;28;20173;-83
2022/08/01 08:44:15;;;;;;;5.37;3.03;;;22.40;1.00;;;;;;5058456;28;20200;-81
2022/08/01 08:46:50;;;;;;;3.30;2.53;;;22.60;1.00;;;;;;5057832;28;20183;-84
2022/08/01 08:49:20;;;;;;;3.57;2.83;;;22.80;1.00;;;;;;5075640;28;20752;-82
2022/08/01 08:51:50;;;;;;;3.20;2.80;;;23.00;1.00;;;;;;5076641;28;20171;-81
2022/08/01 08:54:18;;;;;;;4.13;2.80;;;23.00;1.00;;;;;;5077142;28;20209;-84
2022/08/01 08:56:45;;;;;;;3.50;2.70;;;23.00;1.00;;;;;;5075622;28;20190;-84
2022/08/01 08:59:13;;;;;;;3.70;3.00;;;22.90;1.00;;;;;;5058946;28;20274;-82
2022/08/01 09:01:39;;;;;;;3.67;2.50;;;23.00;1.00;;;;;;5075645;28;20167;-84
2022/08/01 09:04:05;;;;;;;3.80;2.40;;;23.20;1.00;;;;;;5063174;28;20175;-84
2022/08/01 09:06:32;;;;;;;4.13;2.67;;;23.30;1.00;;;;;;5074620;28;20194;-83
2022/08/01 09:08:59;;;;;;;3.17;2.60;;;23.00;1.00;;;;;;5078699;28;20218;-82
2022/08/01 09:11:25;;;;;;;3.23;2.77;;;23.10;1.00;;;;;;5074077;28;20646;-85
2022/08/01 09:14:08;;;;;;;3.53;3.20;;;23.10;1.00;;;;;;5073168;28;20211;-84
2022/08/01 09:16:36;;;;;;;3.50;2.73;;;23.30;1.00;;;;;;5078369;28;20538;-81
2022/08/01 09:19:14;;;;;;;3.23;2.40;;;23.40;1.00;;;;;;5088037;28;20173;-82
2022/08/01 09:21:56;;;;;;;4.37;2.57;;;23.30;1.00;;;;;;5097077;28;20147;-82
2022/08/01 09:24:21;;;;;;;3.27;2.43;;;23.20;1.00;;;;;;5070109;28;20239;-80
2022/08/01 09:30:24;;;;;;;3.87;2.70;;;23.00;1.00;;;;;;5074317;28;20492;-80
2022/08/01 09:33:00;;;;;;;2.90;1.80;;;22.90;1.00;;;;;;5054833;28;20600;-82
2022/08/01 09:35:37;;;;;;;2.77;1.70;;;22.90;1.00;;;;;;5056407;28;20542;-81
2022/08/01 09:38:18;;;;;;;2.97;1.70;;;23.10;1.00;;;;;;5081721;28;20266;-82
2022/08/01 09:40:53;;;;;;;2.70;1.67;;;23.50;1.00;;;;;;5080317;28;20164;-82
2022/08/01 09:43:21;;;;;;;1.37;1.20;;;23.30;1.00;;;;;;5066977;28;20252;-81
2022/08/01 09:45:54;;;;;;;3.80;1.67;;;23.30;1.00;;;;;;5081059;28;20685;-81
2022/08/01 09:48:27;;;;;;;2.07;1.37;;;23.60;1.00;;;;;;5074625;28;20258;-82
2022/08/01 09:50:53;;;;;;;2.10;1.30;;;24.10;1.00;;;;;;5074199;28;20188;-84
2022/08/01 09:53:19;;;;;;;2.53;1.10;;;24.00;1.00;;;;;;5055396;28;20184;-85
2022/08/01 09:55:45;;;;;;;2.13;1.10;;;24.00;1.00;;;;;;5055802;28;20203;-83
2022/08/01 09:58:11;;;;;;;4.37;1.30;;;24.20;1.00;;;;;;5073938;28;20712;-84
2022/08/01 10:00:39;;;;;;;22.10;13.50;;;24.40;1.00;;;;;;5073783;28;20243;-86
2022/08/01 10:03:25;;;;;;;1.53;1.10;;;24.70;99.90;;;;;;5056603;28;20196;-84
2022/08/01 10:05:57;;;;;;;1.70;1.00;;;24.30;99.90;;;;;;5059632;28;20306;-83
2022/08/01 10:08:25;;;;;;;2.47;1.37;;;24.20;99.90;;;;;;5077091;28;20173;-80
2022/08/01 10:11:11;;;;;;;2.40;1.30;;;24.10;99.90;;;;;;5075601;28;20353;-82
2022/08/01 10:13:37;;;;;;;1.97;0.93;;;24.10;1.00;;;;;;5059061;28;20263;-82
2022/08/01 10:16:05;;;;;;;2.13;1.20;;;24.10;99.90;;;;;;5076839;28;20207;-83
2022/08/01 10:18:34;;;;;;;1.77;0.80;;;23.80;99.90;;;;;;5085158;28;20211;-84
2022/08/01 10:21:01;;;;;;;1.97;0.80;;;24.20;99.90;;;;;;5096836;28;20176;-81
2022/08/01 10:23:30;;;;;;;2.77;1.00;;;24.40;1.00;;;;;;5083079;28;20168;-79
2022/08/01 10:25:59;;;;;;;1.73;0.70;;;24.60;1.00;;;;;;5082100;28;20177;-84
2022/08/01 10:28:26;;;;;;;2.97;0.90;;;24.80;1.00;;;;;;5087258;28;20161;-80
2022/08/01 10:30:53;;;;;;;1.67;0.90;;;24.90;1.00;;;;;;5078850;28;20160;-83
2022/08/01 10:33:24;;;;;;;1.37;0.80;;;24.90;1.00;;;;;;5077518;28;20273;-80
2022/08/01 10:35:52;;;;;;;1.87;0.90;;;25.00;1.00;;;;;;5079054;28;20176;-80
2022/08/01 10:38:18;;;;;;;2.13;0.93;;;25.20;1.00;;;;;;5078755;28;20229;-81
2022/08/01 10:40:44;;;;;;;3.07;1.00;;;25.20;1.00;;;;;;5078701;28;20214;-81
2022/08/01 10:43:15;;;;;;;2.30;0.97;;;24.90;99.90;;;;;;5077601;28;20219;-81
2022/08/01 10:45:44;;;;;;;1.23;0.90;;;24.60;99.90;;;;;;5080996;28;20269;-83
2022/08/01 10:48:24;;;;;;;2.03;0.80;;;24.10;99.90;;;;;;5099057;28;20227;-82
2022/08/01 10:51:27;;;;;;;2.03;0.90;;;24.10;99.90;;;;;;5098556;28;20198;-80
2022/08/01 10:53:57;;;;;;;1.80;0.90;;;24.40;99.90;;;;;;5064284;28;20175;-82
2022/08/01 10:56:36;;;;;;;1.63;1.00;;;24.50;87.20;;;;;;5069365;28;20187;-82
2022/08/01 10:59:03;;;;;;;1.60;1.10;;;24.60;49.80;;;;;;5089128;28;20199;-82
2022/08/01 11:01:34;;;;;;;2.37;1.07;;;24.90;1.00;;;;;;5062787;28;20270;-82
2022/08/01 11:04:14;;;;;;;2.20;0.97;;;24.90;90.20;;;;;;5087422;28;20160;-80
2022/08/01 11:06:52;;;;;;;2.33;1.20;;;25.00;1.00;;;;;;5075422;28;20184;-85
2022/08/01 11:09:24;;;;;;;2.57;0.90;;;25.20;99.90;;;;;;5073863;28;20160;-81
2022/08/01 11:12:16;;;;;;;1.53;0.90;;;25.60;99.90;;;;;;5075725;28;20542;-84
2022/08/01 11:15:09;;;;;;;2.27;1.07;;;25.40;99.90;;;;;;5087642;28;20187;-81
2022/08/01 11:17:51;;;;;;;4.30;1.20;;;25.10;1.00;;;;;;5068484;28;20207;-82
2022/08/01 11:20:22;;;;;;;1.70;0.90;;;25.10;1.00;;;;;;5083604;28;20170;-81
2022/08/01 11:23:04;;;;;;;2.40;0.90;;;25.30;99.90;;;;;;5061261;28;20234;-82
2022/08/01 11:25:36;;;;;;;3.20;0.90;;;25.40;99.90;;;;;;5064105;28;20652;-83
2022/08/01 11:28:17;;;;;;;2.97;1.30;;;25.30;99.90;;;;;;5069867;28;20175;-82
2022/08/01 11:30:47;;;;;;;1.73;1.20;;;25.50;99.90;;;;;;5062629;28;20171;-80
2022/08/01 11:33:17;;;;;;;1.33;0.80;;;25.80;1.00;;;;;;5059727;28;20172;-83
2022/08/01 11:38:39;;;;;;;1.50;0.90;;;25.40;99.90;;;;;;5091840;28;20588;-81
2022/08/01 11:41:24;;;;;;;1.37;0.80;;;25.40;1.00;;;;;;5074043;28;20242;-82
2022/08/01 11:44:08;;;;;;;1.97;1.00;;;25.40;99.90;;;;;;5065224;28;20691;-85
2022/08/01 11:46:54;;;;;;;1.23;0.83;;;25.40;99.90;;;;;;5079381;28;20168;-83
2022/08/01 11:49:28;;;;;;;1.63;0.87;;;25.60;1.00;;;;;;5064285;28;20168;-84
2022/08/01 11:52:09;;;;;;;2.07;1.00;;;26.00;1.00;;;;;;5060765;28;20224;-82
2022/08/01 11:54:41;;;;;;;2.37;1.10;;;25.90;1.00;;;;;;5080310;28;20176;-83
2022/08/01 11:57:37;;;;;;;2.53;1.33;;;25.90;99.90;;;;;;5084085;28;20194;-81
2022/08/01 12:00:14;;;;;;;2.03;1.00;;;26.20;99.90;;;;;;5088256;28;20161;-83
2022/08/01 12:02:57;;;;;;;3.77;1.10;;;26.30;1.00;;;;;;5076376;28;20171;-82
2022/08/01 12:05:42;;;;;;;1.73;0.90;;;26.60;99.90;;;;;;5098066;28;20239;-81
2022/08/01 12:08:34;;;;;;;2.10;0.90;;;26.50;1.00;;;;;;5080931;28;20168;-81
2022/08/01 12:11:01;;;;;;;3.87;1.10;;;26.40;99.90;;;;;;5079193;28;20165;-81
2022/08/01 12:13:44;;;;;;;2.10;0.90;;;26.30;1.00;;;;;;5062045;28;20164;-81
2022/08/01 12:16:10;;;;;;;3.80;1.13;;;26.40;1.00;;;;;;5059859;28;20554;-81
2022/08/01 12:18:44;;;;;;;3.10;1.50;;;26.20;1.00;;;;;;5081020;28;20211;-80
2022/08/01 12:21:10;;;;;;;2.87;1.00;;;25.90;1.00;;;;;;5074064;28;20216;-80
2022/08/01 12:23:36;;;;;;;1.97;1.10;;;25.90;1.00;;;;;;5073978;28;20168;-81
2022/08/01 12:26:03;;;;;;;2.50;1.13;;;25.90;99.90;;;;;;5069931;28;20188;-81
2022/08/01 12:28:38;;;;;;;3.70;1.20;;;26.00;1.00;;;;;;5067800;28;20187;-80
2022/08/01 12:31:07;;;;;;;2.97;1.20;;;26.20;1.00;;;;;;5088855;28;20192;-81
2022/08/01 12:34:21;;;;;;;3.17;0.97;;;26.10;1.00;;;;;;5094340;28;20183;-83
2022/08/01 12:36:54;;;;;;;2.50;1.03;;;26.20;93.00;;;;;;5070573;28;20200;-84
2022/08/01 12:39:20;;;;;;;3.70;1.20;;;26.50;1.00;;;;;;5085434;28;20255;-84
2022/08/01 12:41:46;;;;;;;3.50;1.10;;;26.60;1.00;;;;;;5065472;28;20291;-81
2022/08/01 12:44:20;;;;;;;2.73;1.10;;;26.50;1.00;;;;;;5064963;28;20199;-82
2022/08/01 12:46:46;;;;;;;1.90;1.00;;;26.20;1.00;;;;;;5064527;28;20240;-84
2022/08/01 12:49:21;;;;;;;2.20;1.20;;;26.10;99.90;;;;;;5063285;28;20229;-83
2022/08/01 12:51:47;;;;;;;3.30;1.53;;;26.10;99.90;;;;;;5080682;28;20182;-82
2022/08/01 12:54:13;;;;;;;3.90;1.70;;;26.40;99.90;;;;;;5081101;28;20265;-86
2022/08/01 12:56:41;;;;;;;2.73;1.13;;;26.70;99.90;;;;;;5079819;28;20180;-84
2022/08/01 12:59:20;;;;;;;1.70;1.10;;;26.90;1.00;;;;;;5062286;28;20226;-82
2022/08/01 13:02:12;;;;;;;2.00;1.00;;;27.00;99.90;;;;;;5072006;28;20177;-84
2022/08/01 13:04:51;;;;;;;2.07;1.30;;;26.90;1.00;;;;;;5087973;28;20660;-86
2022/08/01 13:07:18;;;;;;;3.47;1.27;;;26.70;1.00;;;;;;5054360;28;20217;-82
2022/08/01 13:09:51;;;;;;;3.33;1.43;;;26.10;1.00;;;;;;5082487;28;20214;-82
2022/08/01 13:12:17;;;;;;;2.93;0.97;;;26.00;1.00;;;;;;5068929;28;20176;-83
2022/08/01 13:14:45;;;;;;;2.67;1.20;;;25.90;99.90;;;;;;5084645;28;20179;-83